sensor_id;sensor_type;location;lat;lon;timestamp;pressure;altitude;pressure_sealevel;temperature;humidity
52651;BME280;38537;47.226;39.702;2023-10-13T00:01:57;101159.41;;;10.00;42.69
52651;BME280;38537;47.226;39.702;2023-10-13T00:04:29;101160.22;;;10.11;42.13
52651;BME280;38537;47.226;39.702;2023-10-13T00:06:58;101152.69;;;10.11;42.49
52651;BME280;38537;47.226;39.702;2023-10-13T00:09:29;101159.38;;;10.15;42.17
52651;BME280;38537;47.226;39.702;2023-10-13T00:12:00;101135.16;;;10.01;42.71
52651;BME280;38537;47.226;39.702;2023-10-13T00:14:28;101153.56;;;10.02;43.07
52651;BME280;38537;47.226;39.702;2023-10-13T00:17:03;101162.47;;;10.04;43.16
52651;BME280;38537;47.226;39.702;2023-10-13T00:19:33;101156.97;;;9.93;43.38
52651;BME280;38537;47.226;39.702;2023-10-13T00:22:09;101158.31;;;9.96;42.83
52651;BME280;38537;47.226;39.702;2023-10-13T00:24:38;101151.38;;;9.88;43.47
52651;BME280;38537;47.226;39.702;2023-10-13T00:27:19;101157.25;;;9.87;43.67
52651;BME280;38537;47.226;39.702;2023-10-13T00:30:05;101157.25;;;9.82;44.27
52651;BME280;38537;47.226;39.702;2023-10-13T00:32:46;101151.13;;;9.75;44.04
52651;BME280;38537;47.226;39.702;2023-10-13T00:35:19;101150.63;;;9.73;43.97
52651;BME280;38537;47.226;39.702;2023-10-13T00:37:52;101141.69;;;9.66;43.69
52651;BME280;38537;47.226;39.702;2023-10-13T00:40:22;101153.13;;;9.74;43.63
52651;BME280;38537;47.226;39.702;2023-10-13T00:43:00;101147.56;;;9.64;43.94
52651;BME280;38537;47.226;39.702;2023-10-13T00:45:54;101121.41;;;9.50;44.72
52651;BME280;38537;47.226;39.702;2023-10-13T00:48:25;101145.09;;;9.52;44.46
52651;BME280;38537;47.226;39.702;2023-10-13T00:51:03;101152.63;;;9.52;44.88
52651;BME280;38537;47.226;39.702;2023-10-13T00:53:38;101146.78;;;9.38;45.41
52651;BME280;38537;47.226;39.702;2023-10-13T00:56:11;101164.06;;;9.40;44.67
52651;BME280;38537;47.226;39.702;2023-10-13T00:58:56;101151.78;;;9.36;44.82
52651;BME280;38537;47.226;39.702;2023-10-13T01:01:29;101146.81;;;9.28;44.96
52651;BME280;38537;47.226;39.702;2023-10-13T01:04:01;101149.31;;;9.19;45.12
52651;BME280;38537;47.226;39.702;2023-10-13T01:06:32;101156.84;;;9.24;45.15
52651;BME280;38537;47.226;39.702;2023-10-13T01:09:03;101168.53;;;9.21;44.98
52651;BME280;38537;47.226;39.702;2023-10-13T01:11:44;101161.28;;;9.25;45.04
52651;BME280;38537;47.226;39.702;2023-10-13T01:14:12;101145.69;;;9.24;44.57
52651;BME280;38537;47.226;39.702;2023-10-13T01:16:42;101147.63;;;9.28;45.05
52651;BME280;38537;47.226;39.702;2023-10-13T01:19:14;101148.47;;;9.19;44.72
52651;BME280;38537;47.226;39.702;2023-10-13T01:21:49;101134.81;;;9.17;45.06
52651;BME280;38537;47.226;39.702;2023-10-13T01:24:16;101144.03;;;9.28;44.88
52651;BME280;38537;47.226;39.702;2023-10-13T01:26:46;101158.47;;;9.35;44.67
52651;BME280;38537;47.226;39.702;2023-10-13T01:29:19;101162.38;;;9.39;44.57
52651;BME280;38537;47.226;39.702;2023-10-13T01:31:46;101161.25;;;9.40;44.76
52651;BME280;38537;47.226;39.702;2023-10-13T01:34:18;101157.91;;;9.33;44.81
52651;BME280;38537;47.226;39.702;2023-10-13T01:36:54;101156.25;;;9.32;44.94
52651;BME280;38537;47.226;39.702;2023-10-13T01:39:23;101154.03;;;9.34;44.83
52651;BME280;38537;47.226;39.702;2023-10-13T01:41:56;101151.22;;;9.34;44.90
52651;BME280;38537;47.226;39.702;2023-10-13T01:44:25;101135.38;;;9.24;44.78
52651;BME280;38537;47.226;39.702;2023-10-13T01:46:58;101154.06;;;9.29;45.33
52651;BME280;38537;47.226;39.702;2023-10-13T01:49:33;101156.81;;;9.34;45.08
52651;BME280;38537;47.226;39.702;2023-10-13T01:52:09;101151.50;;;9.38;44.62
52651;BME280;38537;47.226;39.702;2023-10-13T01:54:45;101130.06;;;9.33;44.82
52651;BME280;38537;47.226;39.702;2023-10-13T01:57:13;101130.91;;;9.28;45.05
52651;BME280;38537;47.226;39.702;2023-10-13T01:59:41;101140.09;;;9.34;45.08
52651;BME280;38537;47.226;39.702;2023-10-13T02:02:11;101149.56;;;9.38;44.64
52651;BME280;38537;47.226;39.702;2023-10-13T02:04:43;101152.63;;;9.32;45.25
52651;BME280;38537;47.226;39.702;2023-10-13T02:07:16;101151.22;;;9.34;45.15
52651;BME280;38537;47.226;39.702;2023-10-13T02:09:43;101130.09;;;9.18;45.15
52651;BME280;38537;47.226;39.702;2023-10-13T02:12:11;101137.88;;;9.26;45.22
52651;BME280;38537;47.226;39.702;2023-10-13T02:14:39;101140.94;;;9.24;45.15
52651;BME280;38537;47.226;39.702;2023-10-13T02:17:09;101132.88;;;9.18;45.37
52651;BME280;38537;47.226;39.702;2023-10-13T02:19:40;101130.66;;;9.20;44.84
52651;BME280;38537;47.226;39.702;2023-10-13T02:22:31;101139.00;;;9.30;45.13
52651;BME280;38537;47.226;39.702;2023-10-13T02:24:59;101129.78;;;9.35;44.95
52651;BME280;38537;47.226;39.702;2023-10-13T02:27:34;101116.44;;;9.26;44.83
52651;BME280;38537;47.226;39.702;2023-10-13T02:30:11;101130.31;;;9.42;45.06
52651;BME280;38537;47.226;39.702;2023-10-13T02:32:41;101136.19;;;9.50;44.62
52651;BME280;38537;47.226;39.702;2023-10-13T02:35:11;101100.50;;;9.32;44.75
52651;BME280;38537;47.226;39.702;2023-10-13T02:37:44;101111.03;;;9.60;44.41
52651;BME280;38537;47.226;39.702;2023-10-13T02:40:21;101116.59;;;9.66;44.27
52651;BME280;38537;47.226;39.702;2023-10-13T02:42:50;101115.97;;;9.89;44.22
52651;BME280;38537;47.226;39.702;2023-10-13T02:45:18;101128.06;;;10.18;43.66
52651;BME280;38537;47.226;39.702;2023-10-13T02:47:50;101113.25;;;10.33;43.51
52651;BME280;38537;47.226;39.702;2023-10-13T02:50:39;101107.56;;;10.48;43.08
52651;BME280;38537;47.226;39.702;2023-10-13T02:53:10;101111.44;;;10.52;42.69
52651;BME280;38537;47.226;39.702;2023-10-13T02:55:51;101114.78;;;10.54;42.76
52651;BME280;38537;47.226;39.702;2023-10-13T02:58:19;101115.13;;;10.43;42.86
52651;BME280;38537;47.226;39.702;2023-10-13T03:00:48;101113.53;;;10.37;42.99
52651;BME280;38537;47.226;39.702;2023-10-13T03:03:15;101125.69;;;10.56;43.02
52651;BME280;38537;47.226;39.702;2023-10-13T03:05:46;101121.84;;;10.42;43.18
52651;BME280;38537;47.226;39.702;2023-10-13T03:08:13;101120.66;;;10.53;42.95
52651;BME280;38537;47.226;39.702;2023-10-13T03:10:52;101123.47;;;10.53;42.86
52651;BME280;38537;47.226;39.702;2023-10-13T03:13:21;101115.13;;;10.43;42.95
52651;BME280;38537;47.226;39.702;2023-10-13T03:15:49;101125.25;;;10.34;43.47
52651;BME280;38537;47.226;39.702;2023-10-13T03:18:16;101108.50;;;10.34;43.41
52651;BME280;38537;47.226;39.702;2023-10-13T03:20:45;101112.09;;;10.39;43.03
52651;BME280;38537;47.226;39.702;2023-10-13T03:23:23;101120.88;;;10.61;42.83
52651;BME280;38537;47.226;39.702;2023-10-13T03:25:51;101133.38;;;10.69;42.66
52651;BME280;38537;47.226;39.702;2023-10-13T03:28:22;101125.13;;;10.54;43.51
52651;BME280;38537;47.226;39.702;2023-10-13T03:30:52;101127.66;;;10.50;43.39
52651;BME280;38537;47.226;39.702;2023-10-13T03:33:20;101128.53;;;10.46;43.14
52651;BME280;38537;47.226;39.702;2023-10-13T03:35:53;101114.09;;;10.34;43.31
52651;BME280;38537;47.226;39.702;2023-10-13T03:38:21;101119.16;;;10.26;43.44
52651;BME280;38537;47.226;39.702;2023-10-13T03:40:54;101116.09;;;10.18;43.92
52651;BME280;38537;47.226;39.702;2023-10-13T03:43:39;101129.47;;;10.31;43.28
52651;BME280;38537;47.226;39.702;2023-10-13T03:46:12;101133.59;;;10.39;43.20
52651;BME280;38537;47.226;39.702;2023-10-13T03:48:40;101111.03;;;10.30;43.48
52651;BME280;38537;47.226;39.702;2023-10-13T03:51:22;101115.72;;;10.40;43.31
52651;BME280;38537;47.226;39.702;2023-10-13T03:53:58;101128.13;;;10.62;43.17
52651;BME280;38537;47.226;39.702;2023-10-13T03:56:28;101129.34;;;10.46;43.39
52651;BME280;38537;47.226;39.702;2023-10-13T03:58:59;101129.63;;;10.50;42.97
52651;BME280;38537;47.226;39.702;2023-10-13T04:01:33;101113.47;;;10.42;43.00
52651;BME280;38537;47.226;39.702;2023-10-13T04:04:12;101115.09;;;10.53;42.87
52651;BME280;38537;47.226;39.702;2023-10-13T04:06:42;101126.72;;;10.65;42.92
52651;BME280;38537;47.226;39.702;2023-10-13T04:09:20;101128.63;;;10.70;42.90
52651;BME280;38537;47.226;39.702;2023-10-13T04:12:00;101129.19;;;10.72;42.95
52651;BME280;38537;47.226;39.702;2023-10-13T04:14:34;101145.69;;;10.68;43.14
52651;BME280;38537;47.226;39.702;2023-10-13T04:17:21;101135.28;;;10.79;43.09
52651;BME280;38537;47.226;39.702;2023-10-13T04:19:57;101124.88;;;10.84;43.01
52651;BME280;38537;47.226;39.702;2023-10-13T04:22:38;101142.84;;;10.78;42.70
52651;BME280;38537;47.226;39.702;2023-10-13T04:25:25;101145.69;;;10.68;42.96
52651;BME280;38537;47.226;39.702;2023-10-13T04:27:56;101141.34;;;10.52;43.58
52651;BME280;38537;47.226;39.702;2023-10-13T04:30:47;101148.59;;;10.53;43.42
52651;BME280;38537;47.226;39.702;2023-10-13T04:33:31;101140.78;;;10.50;43.40
52651;BME280;38537;47.226;39.702;2023-10-13T04:36:09;101146.63;;;10.53;43.85
52651;BME280;38537;47.226;39.702;2023-10-13T04:38:58;101154.97;;;10.58;43.45
52651;BME280;38537;47.226;39.702;2023-10-13T04:41:39;101149.22;;;10.40;44.54
52651;BME280;38537;47.226;39.702;2023-10-13T04:44:15;101135.91;;;10.21;44.75
52651;BME280;38537;47.226;39.702;2023-10-13T04:46:57;101147.06;;;10.26;44.80
52651;BME280;38537;47.226;39.702;2023-10-13T04:49:32;101149.88;;;10.21;44.69
52651;BME280;38537;47.226;39.702;2023-10-13T04:52:18;101146.25;;;10.21;44.84
52651;BME280;38537;47.226;39.702;2023-10-13T04:55:24;101152.38;;;10.23;45.29
52651;BME280;38537;47.226;39.702;2023-10-13T04:58:10;101144.56;;;10.20;45.32
52651;BME280;38537;47.226;39.702;2023-10-13T05:00:43;101146.22;;;10.26;45.67
52651;BME280;38537;47.226;39.702;2023-10-13T05:03:10;101147.06;;;10.26;45.52
52651;BME280;38537;47.226;39.702;2023-10-13T05:05:58;101145.97;;;10.17;45.54
52651;BME280;38537;47.226;39.702;2023-10-13T05:08:44;101144.50;;;10.35;45.72
52651;BME280;38537;47.226;39.702;2023-10-13T05:11:30;101152.25;;;10.48;45.69
52651;BME280;38537;47.226;39.702;2023-10-13T05:14:15;101146.31;;;10.60;45.49
52651;BME280;38537;47.226;39.702;2023-10-13T05:17:01;101127.41;;;10.47;46.14
52651;BME280;38537;47.226;39.702;2023-10-13T05:19:47;101133.00;;;10.42;46.65
52651;BME280;38537;47.226;39.702;2023-10-13T05:22:33;101155.59;;;10.45;46.82
52651;BME280;38537;47.226;39.702;2023-10-13T05:25:19;101156.47;;;10.41;47.22
52651;BME280;38537;47.226;39.702;2023-10-13T05:28:05;101154.50;;;10.41;47.12
52651;BME280;38537;47.226;39.702;2023-10-13T05:31:02;101159.22;;;10.51;47.08
52651;BME280;38537;47.226;39.702;2023-10-13T05:33:48;101154.06;;;10.68;46.56
52651;BME280;38537;47.226;39.702;2023-10-13T05:36:35;101167.91;;;10.83;46.30
52651;BME280;38537;47.226;39.702;2023-10-13T05:39:21;101167.63;;;10.85;47.46
52651;BME280;38537;47.226;39.702;2023-10-13T05:42:06;101159.31;;;10.80;47.25
52651;BME280;38537;47.226;39.702;2023-10-13T05:44:52;101139.47;;;10.81;47.18
52651;BME280;38537;47.226;39.702;2023-10-13T05:47:38;101148.81;;;11.01;46.41
52651;BME280;38537;47.226;39.702;2023-10-13T05:50:06;101149.53;;;11.11;46.92
52651;BME280;38537;47.226;39.702;2023-10-13T05:52:49;101150.19;;;11.32;46.64
52651;BME280;38537;47.226;39.702;2023-10-13T05:55:26;101156.56;;;11.38;47.96
52651;BME280;38537;47.226;39.702;2023-10-13T05:58:13;101135.06;;;11.33;46.88
52651;BME280;38537;47.226;39.702;2023-10-13T06:00:59;101144.22;;;11.44;47.78
52651;BME280;38537;47.226;39.702;2023-10-13T06:03:46;101124.22;;;11.26;48.23
52651;BME280;38537;47.226;39.702;2023-10-13T06:06:32;101140.88;;;11.42;47.63
52651;BME280;38537;47.226;39.702;2023-10-13T06:09:19;101127.94;;;11.22;48.69
52651;BME280;38537;47.226;39.702;2023-10-13T06:12:05;101143.81;;;11.26;49.59
52651;BME280;38537;47.226;39.702;2023-10-13T06:14:52;101131.31;;;11.19;48.77
52651;BME280;38537;47.226;39.702;2023-10-13T06:17:40;101139.41;;;11.20;49.24
52651;BME280;38537;47.226;39.702;2023-10-13T06:20:26;101132.50;;;11.08;50.19
52651;BME280;38537;47.226;39.702;2023-10-13T06:23:11;101143.94;;;11.11;50.89
52651;BME280;38537;47.226;39.702;2023-10-13T06:25:58;101152.44;;;11.30;50.48
52651;BME280;38537;47.226;39.702;2023-10-13T06:28:43;101137.16;;;11.22;51.02
52651;BME280;38537;47.226;39.702;2023-10-13T06:31:13;101140.03;;;11.41;49.99
52651;BME280;38537;47.226;39.702;2023-10-13T06:33:50;101124.34;;;11.45;49.25
52651;BME280;38537;47.226;39.702;2023-10-13T06:36:17;101133.66;;;11.64;50.03
52651;BME280;38537;47.226;39.702;2023-10-13T06:38:47;101144.03;;;11.88;49.68
52651;BME280;38537;47.226;39.702;2023-10-13T06:41:23;101131.53;;;12.04;49.04
52651;BME280;38537;47.226;39.702;2023-10-13T06:44:07;101131.91;;;12.16;48.81
52651;BME280;38537;47.226;39.702;2023-10-13T06:46:42;101135.13;;;12.28;48.82
52651;BME280;38537;47.226;39.702;2023-10-13T06:49:11;101109.16;;;12.23;48.92
52651;BME280;38537;47.226;39.702;2023-10-13T06:51:40;101122.38;;;12.36;49.13
52651;BME280;38537;47.226;39.702;2023-10-13T06:54:08;101129.28;;;12.44;49.14
52651;BME280;38537;47.226;39.702;2023-10-13T06:56:47;101128.63;;;12.52;50.07
52651;BME280;38537;47.226;39.702;2023-10-13T06:59:19;101120.75;;;12.54;49.54
52651;BME280;38537;47.226;39.702;2023-10-13T07:01:47;101132.78;;;12.73;49.99
52651;BME280;38537;47.226;39.702;2023-10-13T07:04:15;101123.25;;;12.74;49.43
52651;BME280;38537;47.226;39.702;2023-10-13T07:06:44;101132.69;;;12.78;50.99
52651;BME280;38537;47.226;39.702;2023-10-13T07:09:19;101141.16;;;12.92;50.32
52651;BME280;38537;47.226;39.702;2023-10-13T07:12:05;101148.66;;;12.96;50.51
52651;BME280;38537;47.226;39.702;2023-10-13T07:14:50;101119.88;;;12.91;51.67
52651;BME280;38537;47.226;39.702;2023-10-13T07:17:21;101102.84;;;12.87;52.29
52651;BME280;38537;47.226;39.702;2023-10-13T07:19:54;101132.13;;;13.14;51.86
52651;BME280;38537;47.226;39.702;2023-10-13T07:22:42;101122.41;;;13.25;50.26
52651;BME280;38537;47.226;39.702;2023-10-13T07:25:23;101119.75;;;13.47;50.52
52651;BME280;38537;47.226;39.702;2023-10-13T07:27:54;101105.53;;;13.57;49.92
52651;BME280;38537;47.226;39.702;2023-10-13T07:30:24;101106.78;;;13.65;51.55
52651;BME280;38537;47.226;39.702;2023-10-13T07:32:57;101097.03;;;13.62;50.79
52651;BME280;38537;47.226;39.702;2023-10-13T07:35:27;101107.94;;;13.78;51.78
52651;BME280;38537;47.226;39.702;2023-10-13T07:37:58;101109.91;;;13.91;50.40
52651;BME280;38537;47.226;39.702;2023-10-13T07:40:28;101106.88;;;14.01;50.38
52651;BME280;38537;47.226;39.702;2023-10-13T07:42:56;101103.75;;;14.16;49.97
52651;BME280;38537;47.226;39.702;2023-10-13T07:45:44;101098.53;;;14.23;50.07
52651;BME280;38537;47.226;39.702;2023-10-13T07:48:12;101101.09;;;14.33;51.08
52651;BME280;38537;47.226;39.702;2023-10-13T07:50:44;101091.84;;;14.33;51.26
52651;BME280;38537;47.226;39.702;2023-10-13T07:53:16;101100.41;;;14.42;50.78
52651;BME280;38537;47.226;39.702;2023-10-13T07:55:47;101095.81;;;14.46;50.16
52651;BME280;38537;47.226;39.702;2023-10-13T07:58:14;101070.91;;;14.39;50.13
52651;BME280;38537;47.226;39.702;2023-10-13T08:00:48;101089.50;;;14.62;50.48
52651;BME280;38537;47.226;39.702;2023-10-13T08:03:21;101081.16;;;14.71;50.07
52651;BME280;38537;47.226;39.702;2023-10-13T08:06:07;101071.22;;;14.73;50.24
52651;BME280;38537;47.226;39.702;2023-10-13T08:08:43;101070.16;;;14.83;50.23
52651;BME280;38537;47.226;39.702;2023-10-13T08:11:14;101087.94;;;14.92;49.81
52651;BME280;38537;47.226;39.702;2023-10-13T08:13:52;101082.63;;;14.91;50.10
52651;BME280;38537;47.226;39.702;2023-10-13T08:16:39;101089.19;;;15.08;49.96
52651;BME280;38537;47.226;39.702;2023-10-13T08:19:18;101095.19;;;15.16;49.85
52651;BME280;38537;47.226;39.702;2023-10-13T08:21:47;101087.13;;;15.23;50.39
52651;BME280;38537;47.226;39.702;2023-10-13T08:24:41;101061.63;;;15.19;50.00
52651;BME280;38537;47.226;39.702;2023-10-13T08:27:09;101062.06;;;15.35;49.90
52651;BME280;38537;47.226;39.702;2023-10-13T08:29:46;101077.34;;;15.51;49.85
52651;BME280;38537;47.226;39.702;2023-10-13T08:32:24;101054.66;;;15.48;50.02
52651;BME280;38537;47.226;39.702;2023-10-13T08:34:57;101062.03;;;15.57;49.98
52651;BME280;38537;47.226;39.702;2023-10-13T08:37:26;101061.53;;;15.64;50.31
52651;BME280;38537;47.226;39.702;2023-10-13T08:39:55;101061.56;;;15.72;50.19
52651;BME280;38537;47.226;39.702;2023-10-13T08:42:51;101049.84;;;15.79;49.80
52651;BME280;38537;47.226;39.702;2023-10-13T08:45:31;101028.28;;;15.83;49.83
52651;BME280;38537;47.226;39.702;2023-10-13T08:48:05;101049.38;;;16.03;49.99
52651;BME280;38537;47.226;39.702;2023-10-13T08:50:47;101036.94;;;16.04;50.14
52651;BME280;38537;47.226;39.702;2023-10-13T08:53:31;101041.47;;;16.22;50.14
52651;BME280;38537;47.226;39.702;2023-10-13T08:56:12;101046.78;;;16.24;49.75
52651;BME280;38537;47.226;39.702;2023-10-13T08:58:46;101027.72;;;16.29;50.14
52651;BME280;38537;47.226;39.702;2023-10-13T09:01:26;101017.44;;;16.33;49.52
52651;BME280;38537;47.226;39.702;2023-10-13T09:04:17;101026.88;;;16.46;49.63
52651;BME280;38537;47.226;39.702;2023-10-13T09:07:00;101019.94;;;16.43;49.07
52651;BME280;38537;47.226;39.702;2023-10-13T09:12:24;101014.28;;;16.52;48.34
52651;BME280;38537;47.226;39.702;2023-10-13T09:15:08;101031.88;;;16.58;48.56
52651;BME280;38537;47.226;39.702;2023-10-13T09:17:49;101018.41;;;16.46;48.28
52651;BME280;38537;47.226;39.702;2023-10-13T09:20:30;101024.06;;;16.46;48.45
52651;BME280;38537;47.226;39.702;2023-10-13T09:23:20;101014.63;;;16.33;48.24
52651;BME280;38537;47.226;39.702;2023-10-13T09:26:05;101030.72;;;16.41;48.05
52651;BME280;38537;47.226;39.702;2023-10-13T09:28:39;101021.41;;;16.32;48.16
52651;BME280;38537;47.226;39.702;2023-10-13T09:31:07;101014.28;;;16.26;48.73
52651;BME280;38537;47.226;39.702;2023-10-13T09:33:36;101021.56;;;16.27;48.68
52651;BME280;38537;47.226;39.702;2023-10-13T09:36:05;101020.91;;;16.30;48.69
52651;BME280;38537;47.226;39.702;2023-10-13T09:38:36;101002.84;;;16.31;48.65
52651;BME280;38537;47.226;39.702;2023-10-13T09:41:09;101013.97;;;16.45;48.74
52651;BME280;38537;47.226;39.702;2023-10-13T09:43:45;101009.13;;;16.54;48.68
52651;BME280;38537;47.226;39.702;2023-10-13T09:46:19;101023.06;;;16.59;48.75
52651;BME280;38537;47.226;39.702;2023-10-13T09:48:47;101012.81;;;16.63;48.28
52651;BME280;38537;47.226;39.702;2023-10-13T09:51:31;100997.19;;;16.57;48.65
52651;BME280;38537;47.226;39.702;2023-10-13T09:57:08;101003.00;;;16.61;48.23
52651;BME280;38537;47.226;39.702;2023-10-13T09:59:45;100991.22;;;16.59;48.33
52651;BME280;38537;47.226;39.702;2023-10-13T10:02:20;100997.03;;;16.62;48.33
52651;BME280;38537;47.226;39.702;2023-10-13T10:04:55;101005.16;;;16.72;48.12
52651;BME280;38537;47.226;39.702;2023-10-13T10:07:56;101000.53;;;16.76;47.98
52651;BME280;38537;47.226;39.702;2023-10-13T10:10:42;100996.69;;;16.81;47.68
52651;BME280;38537;47.226;39.702;2023-10-13T10:16:11;100992.66;;;16.99;47.83
52651;BME280;38537;47.226;39.702;2023-10-13T10:18:41;100976.91;;;16.90;47.77
52651;BME280;38537;47.226;39.702;2023-10-13T10:21:10;100985.03;;;16.91;47.56
52651;BME280;38537;47.226;39.702;2023-10-13T10:23:38;100984.09;;;16.87;47.72
52651;BME280;38537;47.226;39.702;2023-10-13T10:26:15;100975.78;;;16.82;47.93
52651;BME280;38537;47.226;39.702;2023-10-13T10:31:58;100967.13;;;16.96;47.83
52651;BME280;38537;47.226;39.702;2023-10-13T10:34:30;100999.47;;;17.07;48.22
52651;BME280;38537;47.226;39.702;2023-10-13T10:37:00;101001.94;;;17.08;48.14
52651;BME280;38537;47.226;39.702;2023-10-13T10:39:35;100973.53;;;17.13;48.01
52651;BME280;38537;47.226;39.702;2023-10-13T10:42:16;100965.38;;;17.21;48.01
52651;BME280;38537;47.226;39.702;2023-10-13T10:44:56;100982.78;;;17.31;48.14
52651;BME280;38537;47.226;39.702;2023-10-13T10:47:32;100981.25;;;17.34;47.77
52651;BME280;38537;47.226;39.702;2023-10-13T10:50:04;100983.44;;;17.28;47.37
52651;BME280;38537;47.226;39.702;2023-10-13T10:52:46;100958.41;;;17.18;47.43
52651;BME280;38537;47.226;39.702;2023-10-13T10:55:19;100965.88;;;17.23;47.49
52651;BME280;38537;47.226;39.702;2023-10-13T10:57:58;100977.81;;;17.28;46.74
52651;BME280;38537;47.226;39.702;2023-10-13T11:00:25;100967.19;;;17.25;46.94
52651;BME280;38537;47.226;39.702;2023-10-13T11:03:06;100952.81;;;17.09;46.76
52651;BME280;38537;47.226;39.702;2023-10-13T11:05:44;100972.69;;;17.22;46.68
52651;BME280;38537;47.226;39.702;2023-10-13T11:08:23;100976.00;;;17.24;46.85
52651;BME280;38537;47.226;39.702;2023-10-13T11:11:00;100967.09;;;17.04;46.73
52651;BME280;38537;47.226;39.702;2023-10-13T11:13:41;100986.81;;;17.13;46.99
52651;BME280;38537;47.226;39.702;2023-10-13T11:16:21;100978.16;;;17.18;46.69
52651;BME280;38537;47.226;39.702;2023-10-13T11:19:02;100964.13;;;17.01;46.81
52651;BME280;38537;47.226;39.702;2023-10-13T11:21:31;100985.19;;;17.03;46.85
52651;BME280;38537;47.226;39.702;2023-10-13T11:23:58;100982.72;;;17.02;46.75
52651;BME280;38537;47.226;39.702;2023-10-13T11:26:36;100982.19;;;17.08;46.85
52651;BME280;38537;47.226;39.702;2023-10-13T11:29:32;100977.00;;;17.19;46.63
52651;BME280;38537;47.226;39.702;2023-10-13T11:32:02;100959.41;;;17.13;46.54
52651;BME280;38537;47.226;39.702;2023-10-13T11:34:30;100976.00;;;17.24;46.80
52651;BME280;38537;47.226;39.702;2023-10-13T11:37:07;100981.47;;;17.29;46.44
52651;BME280;38537;47.226;39.702;2023-10-13T11:40:10;100986.88;;;17.34;46.39
52651;BME280;38537;47.226;39.702;2023-10-13T11:42:43;100989.53;;;17.39;46.43
52651;BME280;38537;47.226;39.702;2023-10-13T11:45:14;100978.41;;;17.34;46.76
52651;BME280;38537;47.226;39.702;2023-10-13T11:48:03;100985.78;;;17.56;46.37
52651;BME280;38537;47.226;39.702;2023-10-13T11:50:40;100981.13;;;17.68;46.25
52651;BME280;38537;47.226;39.702;2023-10-13T11:53:09;100988.69;;;17.76;45.93
52651;BME280;38537;47.226;39.702;2023-10-13T11:55:39;100987.88;;;17.76;46.07
52651;BME280;38537;47.226;39.702;2023-10-13T11:58:08;100991.06;;;17.74;46.44
52651;BME280;38537;47.226;39.702;2023-10-13T12:00:36;100986.63;;;17.65;46.63
52651;BME280;38537;47.226;39.702;2023-10-13T12:03:20;100985.44;;;17.57;46.47
52651;BME280;38537;47.226;39.702;2023-10-13T12:06:08;100982.38;;;17.41;47.86
52651;BME280;38537;47.226;39.702;2023-10-13T12:09:10;100965.72;;;17.19;48.27
52651;BME280;38537;47.226;39.702;2023-10-13T12:11:57;100987.13;;;17.11;48.98
52651;BME280;38537;47.226;39.702;2023-10-13T12:14:29;100985.69;;;17.05;49.38
52651;BME280;38537;47.226;39.702;2023-10-13T12:17:06;100979.50;;;17.12;48.93
52651;BME280;38537;47.226;39.702;2023-10-13T12:19:38;100958.31;;;17.06;48.93
52651;BME280;38537;47.226;39.702;2023-10-13T12:22:06;100963.41;;;17.12;49.18
52651;BME280;38537;47.226;39.702;2023-10-13T12:24:36;100972.50;;;17.27;48.64
52651;BME280;38537;47.226;39.702;2023-10-13T12:27:04;100979.41;;;17.38;48.67
52651;BME280;38537;47.226;39.702;2023-10-13T12:29:47;100974.94;;;17.37;48.36
52651;BME280;38537;47.226;39.702;2023-10-13T12:32:15;100989.03;;;17.37;49.39
52651;BME280;38537;47.226;39.702;2023-10-13T12:34:48;100976.75;;;17.33;49.84
52651;BME280;38537;47.226;39.702;2023-10-13T12:37:33;100978.69;;;17.11;50.84
52651;BME280;38537;47.226;39.702;2023-10-13T12:40:13;100996.44;;;17.12;50.82
52651;BME280;38537;47.226;39.702;2023-10-13T12:43:00;100985.53;;;16.93;51.35
52651;BME280;38537;47.226;39.702;2023-10-13T12:45:47;100994.22;;;16.79;52.38
52651;BME280;38537;47.226;39.702;2023-10-13T12:48:36;100996.38;;;16.74;52.66
52651;BME280;38537;47.226;39.702;2023-10-13T12:51:22;100985.75;;;16.71;51.76
52651;BME280;38537;47.226;39.702;2023-10-13T12:54:01;100998.84;;;16.84;51.79
52651;BME280;38537;47.226;39.702;2023-10-13T12:56:33;100971.31;;;16.81;51.30
52651;BME280;38537;47.226;39.702;2023-10-13T12:59:01;100982.06;;;16.96;51.35
52651;BME280;38537;47.226;39.702;2023-10-13T13:01:36;100981.22;;;17.04;51.26
52651;BME280;38537;47.226;39.702;2023-10-13T13:04:10;100995.97;;;17.10;51.00
52651;BME280;38537;47.226;39.702;2023-10-13T13:06:52;100980.03;;;17.05;51.15
52651;BME280;38537;47.226;39.702;2023-10-13T13:09:21;100997.97;;;17.09;51.85
52651;BME280;38537;47.226;39.702;2023-10-13T13:11:55;100989.69;;;17.04;51.04
52651;BME280;38537;47.226;39.702;2023-10-13T13:14:26;100998.25;;;17.17;51.12
52651;BME280;38537;47.226;39.702;2023-10-13T13:16:57;100985.84;;;17.09;51.29
52651;BME280;38537;47.226;39.702;2023-10-13T13:19:35;100992.31;;;17.09;51.88
52651;BME280;38537;47.226;39.702;2023-10-13T13:22:09;100981.88;;;17.10;51.36
52651;BME280;38537;47.226;39.702;2023-10-13T13:24:43;100998.78;;;17.10;52.72
52651;BME280;38537;47.226;39.702;2023-10-13T13:27:16;101007.28;;;17.01;52.59
52651;BME280;38537;47.226;39.702;2023-10-13T13:29:49;101009.09;;;16.97;52.86
52651;BME280;38537;47.226;39.702;2023-10-13T13:32:16;101007.28;;;16.93;52.73
52651;BME280;38537;47.226;39.702;2023-10-13T13:34:52;101001.16;;;16.91;52.28
52651;BME280;38537;47.226;39.702;2023-10-13T13:37:26;100984.25;;;16.82;52.29
52651;BME280;38537;47.226;39.702;2023-10-13T13:39:55;100954.94;;;16.66;52.20
52651;BME280;38537;47.226;39.702;2023-10-13T13:42:22;100998.81;;;16.93;52.23